sensor_id;sensor_type;location;lat;lon;timestamp;temperature;humidity
4050;DHT22;2039;50.894;6.888;2023-05-28T00:00:41;14.20;87.00
4050;DHT22;2039;50.894;6.888;2023-05-28T00:03:09;14.30;89.30
4050;DHT22;2039;50.894;6.888;2023-05-28T00:05:35;14.40;86.40
4050;DHT22;2039;50.894;6.888;2023-05-28T00:08:01;14.30;89.20
4050;DHT22;2039;50.894;6.888;2023-05-28T00:10:27;14.10;89.90
4050;DHT22;2039;50.894;6.888;2023-05-28T00:12:52;14.20;90.90
4050;DHT22;2039;50.894;6.888;2023-05-28T00:15:18;14.20;90.00
4050;DHT22;2039;50.894;6.888;2023-05-28T00:17:44;14.10;88.40
4050;DHT22;2039;50.894;6.888;2023-05-28T00:20:10;14.10;89.00
4050;DHT22;2039;50.894;6.888;2023-05-28T00:22:36;14.00;91.50
4050;DHT22;2039;50.894;6.888;2023-05-28T00:25:02;14.00;91.70
4050;DHT22;2039;50.894;6.888;2023-05-28T00:27:27;14.00;91.90
4050;DHT22;2039;50.894;6.888;2023-05-28T00:29:53;13.90;91.50
4050;DHT22;2039;50.894;6.888;2023-05-28T00:32:19;13.80;95.10
4050;DHT22;2039;50.894;6.888;2023-05-28T00:34:44;13.60;96.40
4050;DHT22;2039;50.894;6.888;2023-05-28T00:37:10;13.60;97.90
4050;DHT22;2039;50.894;6.888;2023-05-28T00:39:36;13.50;97.40
4050;DHT22;2039;50.894;6.888;2023-05-28T00:42:05;13.50;98.40
4050;DHT22;2039;50.894;6.888;2023-05-28T00:44:36;13.40;99.90
4050;DHT22;2039;50.894;6.888;2023-05-28T00:47:03;13.50;98.20
4050;DHT22;2039;50.894;6.888;2023-05-28T00:49:29;13.40;97.80
4050;DHT22;2039;50.894;6.888;2023-05-28T00:51:59;13.30;99.60
4050;DHT22;2039;50.894;6.888;2023-05-28T00:54:26;13.40;99.60
4050;DHT22;2039;50.894;6.888;2023-05-28T00:56:55;13.30;99.90
4050;DHT22;2039;50.894;6.888;2023-05-28T00:59:24;13.30;99.90
4050;DHT22;2039;50.894;6.888;2023-05-28T01:01:50;13.20;99.90
4050;DHT22;2039;50.894;6.888;2023-05-28T01:04:16;13.20;98.90
4050;DHT22;2039;50.894;6.888;2023-05-28T01:06:43;13.10;99.90
4050;DHT22;2039;50.894;6.888;2023-05-28T01:09:10;13.10;99.30
4050;DHT22;2039;50.894;6.888;2023-05-28T01:11:43;13.10;98.60
4050;DHT22;2039;50.894;6.888;2023-05-28T01:14:10;13.10;99.90
4050;DHT22;2039;50.894;6.888;2023-05-28T01:16:40;13.10;99.90
4050;DHT22;2039;50.894;6.888;2023-05-28T01:19:08;13.00;99.90
4050;DHT22;2039;50.894;6.888;2023-05-28T01:21:34;13.00;99.90
4050;DHT22;2039;50.894;6.888;2023-05-28T01:24:02;12.90;99.90
4050;DHT22;2039;50.894;6.888;2023-05-28T01:26:29;12.90;99.90
4050;DHT22;2039;50.894;6.888;2023-05-28T01:28:55;12.80;99.90
4050;DHT22;2039;50.894;6.888;2023-05-28T01:31:21;12.70;99.90
4050;DHT22;2039;50.894;6.888;2023-05-28T01:33:47;12.70;99.90
4050;DHT22;2039;50.894;6.888;2023-05-28T01:36:20;12.70;99.90
4050;DHT22;2039;50.894;6.888;2023-05-28T01:38:47;12.70;99.90
4050;DHT22;2039;50.894;6.888;2023-05-28T01:41:14;12.70;99.90
4050;DHT22;2039;50.894;6.888;2023-05-28T01:43:42;12.60;99.90
4050;DHT22;2039;50.894;6.888;2023-05-28T01:46:08;12.60;99.90
4050;DHT22;2039;50.894;6.888;2023-05-28T01:48:34;12.50;99.90
4050;DHT22;2039;50.894;6.888;2023-05-28T01:51:01;12.60;99.90
4050;DHT22;2039;50.894;6.888;2023-05-28T01:53:26;12.50;99.90
4050;DHT22;2039;50.894;6.888;2023-05-28T01:55:52;12.50;99.90
4050;DHT22;2039;50.894;6.888;2023-05-28T01:58:21;12.40;99.90
4050;DHT22;2039;50.894;6.888;2023-05-28T02:00:57;12.40;99.90
4050;DHT22;2039;50.894;6.888;2023-05-28T02:03:25;12.30;99.90
4050;DHT22;2039;50.894;6.888;2023-05-28T02:05:51;12.30;99.90
4050;DHT22;2039;50.894;6.888;2023-05-28T02:08:16;12.30;99.90
4050;DHT22;2039;50.894;6.888;2023-05-28T02:10:42;12.30;99.90
4050;DHT22;2039;50.894;6.888;2023-05-28T02:13:08;12.30;99.90
4050;DHT22;2039;50.894;6.888;2023-05-28T02:15:33;12.30;99.90
4050;DHT22;2039;50.894;6.888;2023-05-28T02:17:59;12.20;99.90
4050;DHT22;2039;50.894;6.888;2023-05-28T02:20:25;12.10;99.90
4050;DHT22;2039;50.894;6.888;2023-05-28T02:22:50;12.10;99.90
4050;DHT22;2039;50.894;6.888;2023-05-28T02:25:18;12.00;99.90
4050;DHT22;2039;50.894;6.888;2023-05-28T02:27:48;12.00;99.90
4050;DHT22;2039;50.894;6.888;2023-05-28T02:30:13;12.00;99.90
4050;DHT22;2039;50.894;6.888;2023-05-28T02:32:40;12.00;99.90
4050;DHT22;2039;50.894;6.888;2023-05-28T02:35:06;12.00;99.90
4050;DHT22;2039;50.894;6.888;2023-05-28T02:37:33;11.90;99.90
4050;DHT22;2039;50.894;6.888;2023-05-28T02:40:01;11.90;99.90
4050;DHT22;2039;50.894;6.888;2023-05-28T02:42:28;11.80;99.90
4050;DHT22;2039;50.894;6.888;2023-05-28T02:44:54;11.80;99.90
4050;DHT22;2039;50.894;6.888;2023-05-28T02:47:20;11.90;99.90
4050;DHT22;2039;50.894;6.888;2023-05-28T02:49:46;11.80;99.90
4050;DHT22;2039;50.894;6.888;2023-05-28T02:52:12;11.80;99.90
4050;DHT22;2039;50.894;6.888;2023-05-28T02:54:37;11.80;99.90
4050;DHT22;2039;50.894;6.888;2023-05-28T02:57:03;11.80;99.90
4050;DHT22;2039;50.894;6.888;2023-05-28T02:59:29;11.80;99.90
4050;DHT22;2039;50.894;6.888;2023-05-28T03:01:55;11.80;99.90
4050;DHT22;2039;50.894;6.888;2023-05-28T03:04:20;11.70;99.90
4050;DHT22;2039;50.894;6.888;2023-05-28T03:06:46;11.70;99.90
4050;DHT22;2039;50.894;6.888;2023-05-28T03:09:15;11.70;99.90
4050;DHT22;2039;50.894;6.888;2023-05-28T03:11:41;11.70;99.90
4050;DHT22;2039;50.894;6.888;2023-05-28T03:14:07;11.70;99.90
4050;DHT22;2039;50.894;6.888;2023-05-28T03:16:32;11.70;99.90
4050;DHT22;2039;50.894;6.888;2023-05-28T03:19:02;11.70;99.90
4050;DHT22;2039;50.894;6.888;2023-05-28T03:21:27;11.70;99.90
4050;DHT22;2039;50.894;6.888;2023-05-28T03:23:53;11.70;99.90
4050;DHT22;2039;50.894;6.888;2023-05-28T03:26:19;11.70;99.90
4050;DHT22;2039;50.894;6.888;2023-05-28T03:28:44;11.60;99.90
4050;DHT22;2039;50.894;6.888;2023-05-28T03:31:11;11.70;99.90
4050;DHT22;2039;50.894;6.888;2023-05-28T03:33:38;11.60;99.90
4050;DHT22;2039;50.894;6.888;2023-05-28T03:36:04;11.60;99.90
4050;DHT22;2039;50.894;6.888;2023-05-28T03:38:32;11.60;99.90
4050;DHT22;2039;50.894;6.888;2023-05-28T03:40:58;11.50;99.90
4050;DHT22;2039;50.894;6.888;2023-05-28T03:43:27;11.40;99.90
4050;DHT22;2039;50.894;6.888;2023-05-28T03:45:53;11.30;99.90
4050;DHT22;2039;50.894;6.888;2023-05-28T03:48:18;11.40;99.90
4050;DHT22;2039;50.894;6.888;2023-05-28T03:50:46;11.40;99.90
4050;DHT22;2039;50.894;6.888;2023-05-28T03:53:12;11.40;99.90
4050;DHT22;2039;50.894;6.888;2023-05-28T03:55:38;11.30;99.90
4050;DHT22;2039;50.894;6.888;2023-05-28T03:58:04;11.30;99.90
4050;DHT22;2039;50.894;6.888;2023-05-28T04:00:30;11.30;99.90
4050;DHT22;2039;50.894;6.888;2023-05-28T04:02:55;11.30;99.90
4050;DHT22;2039;50.894;6.888;2023-05-28T04:05:21;11.30;99.90
4050;DHT22;2039;50.894;6.888;2023-05-28T04:07:48;11.30;99.90
4050;DHT22;2039;50.894;6.888;2023-05-28T04:10:14;11.30;99.90
4050;DHT22;2039;50.894;6.888;2023-05-28T04:12:39;11.30;99.90
4050;DHT22;2039;50.894;6.888;2023-05-28T04:15:06;11.40;99.90
4050;DHT22;2039;50.894;6.888;2023-05-28T04:17:32;11.30;99.90
4050;DHT22;2039;50.894;6.888;2023-05-28T04:19:58;11.30;99.90
4050;DHT22;2039;50.894;6.888;2023-05-28T04:22:24;11.40;99.90
4050;DHT22;2039;50.894;6.888;2023-05-28T04:24:52;11.40;99.90
4050;DHT22;2039;50.894;6.888;2023-05-28T04:27:21;11.40;99.90
4050;DHT22;2039;50.894;6.888;2023-05-28T04:29:46;11.40;99.90
4050;DHT22;2039;50.894;6.888;2023-05-28T04:32:13;11.40;99.90
4050;DHT22;2039;50.894;6.888;2023-05-28T04:34:39;11.50;99.90
4050;DHT22;2039;50.894;6.888;2023-05-28T04:37:08;11.50;99.90
4050;DHT22;2039;50.894;6.888;2023-05-28T04:39:34;11.60;99.90
4050;DHT22;2039;50.894;6.888;2023-05-28T04:42:00;11.80;99.90
4050;DHT22;2039;50.894;6.888;2023-05-28T04:44:29;12.10;99.90
4050;DHT22;2039;50.894;6.888;2023-05-28T04:46:55;12.40;99.90
4050;DHT22;2039;50.894;6.888;2023-05-28T04:49:24;12.60;99.90
4050;DHT22;2039;50.894;6.888;2023-05-28T04:51:50;12.90;99.90
4050;DHT22;2039;50.894;6.888;2023-05-28T04:54:16;13.10;99.90
4050;DHT22;2039;50.894;6.888;2023-05-28T04:56:42;13.40;99.90
4050;DHT22;2039;50.894;6.888;2023-05-28T04:59:08;13.70;99.90
4050;DHT22;2039;50.894;6.888;2023-05-28T05:01:35;14.00;99.90
4050;DHT22;2039;50.894;6.888;2023-05-28T05:04:01;14.20;97.70
4050;DHT22;2039;50.894;6.888;2023-05-28T05:06:28;14.30;92.80
4050;DHT22;2039;50.894;6.888;2023-05-28T05:08:53;14.30;90.00
4050;DHT22;2039;50.894;6.888;2023-05-28T05:11:22;14.20;91.20
4050;DHT22;2039;50.894;6.888;2023-05-28T05:13:48;14.20;92.90
4050;DHT22;2039;50.894;6.888;2023-05-28T05:16:14;14.20;92.10
4050;DHT22;2039;50.894;6.888;2023-05-28T05:18:39;14.30;87.20
4050;DHT22;2039;50.894;6.888;2023-05-28T05:21:05;14.20;91.60
4050;DHT22;2039;50.894;6.888;2023-05-28T05:23:35;14.20;91.20
4050;DHT22;2039;50.894;6.888;2023-05-28T05:26:01;14.30;94.10
4050;DHT22;2039;50.894;6.888;2023-05-28T05:28:26;14.40;96.20
4050;DHT22;2039;50.894;6.888;2023-05-28T05:30:55;14.50;94.10
4050;DHT22;2039;50.894;6.888;2023-05-28T05:33:21;14.60;90.90
4050;DHT22;2039;50.894;6.888;2023-05-28T05:35:46;14.60;83.20
4050;DHT22;2039;50.894;6.888;2023-05-28T05:38:12;14.60;76.50
4050;DHT22;2039;50.894;6.888;2023-05-28T05:40:38;14.50;79.80
4050;DHT22;2039;50.894;6.888;2023-05-28T05:43:03;14.40;90.00
4050;DHT22;2039;50.894;6.888;2023-05-28T05:45:29;14.40;94.00
4050;DHT22;2039;50.894;6.888;2023-05-28T05:47:54;14.50;94.50
4050;DHT22;2039;50.894;6.888;2023-05-28T05:50:20;14.50;95.20
4050;DHT22;2039;50.894;6.888;2023-05-28T05:52:46;14.40;99.90
4050;DHT22;2039;50.894;6.888;2023-05-28T05:55:12;14.50;99.90
4050;DHT22;2039;50.894;6.888;2023-05-28T05:57:37;14.60;90.50
4050;DHT22;2039;50.894;6.888;2023-05-28T06:00:05;14.70;77.80
4050;DHT22;2039;50.894;6.888;2023-05-28T06:02:32;14.80;66.30
4050;DHT22;2039;50.894;6.888;2023-05-28T06:04:57;14.80;49.50
4050;DHT22;2039;50.894;6.888;2023-05-28T06:07:23;14.90;48.80
4050;DHT22;2039;50.894;6.888;2023-05-28T06:09:49;15.00;48.10
4050;DHT22;2039;50.894;6.888;2023-05-28T06:12:15;15.00;53.60
4050;DHT22;2039;50.894;6.888;2023-05-28T06:14:41;15.10;53.30
4050;DHT22;2039;50.894;6.888;2023-05-28T06:17:06;15.10;53.70
4050;DHT22;2039;50.894;6.888;2023-05-28T06:19:33;15.20;47.30
4050;DHT22;2039;50.894;6.888;2023-05-28T06:21:59;15.30;56.60
4050;DHT22;2039;50.894;6.888;2023-05-28T06:24:25;15.30;50.40
4050;DHT22;2039;50.894;6.888;2023-05-28T06:26:50;15.30;41.20
4050;DHT22;2039;50.894;6.888;2023-05-28T06:29:17;15.40;28.30
4050;DHT22;2039;50.894;6.888;2023-05-28T06:31:42;15.50;22.10
4050;DHT22;2039;50.894;6.888;2023-05-28T06:34:08;15.60;20.60
4050;DHT22;2039;50.894;6.888;2023-05-28T06:36:34;15.60;12.60
4050;DHT22;2039;50.894;6.888;2023-05-28T06:39:01;15.60;5.50
4050;DHT22;2039;50.894;6.888;2023-05-28T06:41:27;15.60;7.60
4050;DHT22;2039;50.894;6.888;2023-05-28T06:43:53;15.80;5.20
4050;DHT22;2039;50.894;6.888;2023-05-28T06:46:18;15.80;1.60
4050;DHT22;2039;50.894;6.888;2023-05-28T06:48:46;15.80;2.20
4050;DHT22;2039;50.894;6.888;2023-05-28T06:51:12;15.90;1.00
4050;DHT22;2039;50.894;6.888;2023-05-28T06:53:38;15.90;3.30
4050;DHT22;2039;50.894;6.888;2023-05-28T06:56:05;16.00;6.50
4050;DHT22;2039;50.894;6.888;2023-05-28T06:58:31;16.10;1.00
4050;DHT22;2039;50.894;6.888;2023-05-28T07:00:57;16.20;1.00
4050;DHT22;2039;50.894;6.888;2023-05-28T07:03:23;16.20;1.00
4050;DHT22;2039;50.894;6.888;2023-05-28T07:05:49;16.20;1.00
4050;DHT22;2039;50.894;6.888;2023-05-28T07:08:14;16.20;1.00
4050;DHT22;2039;50.894;6.888;2023-05-28T07:10:42;16.40;1.00
4050;DHT22;2039;50.894;6.888;2023-05-28T07:13:08;16.40;1.00
4050;DHT22;2039;50.894;6.888;2023-05-28T07:15:34;16.50;1.00
4050;DHT22;2039;50.894;6.888;2023-05-28T07:17:59;16.60;1.00
4050;DHT22;2039;50.894;6.888;2023-05-28T07:20:26;16.60;1.00
4050;DHT22;2039;50.894;6.888;2023-05-28T07:22:54;16.60;1.00
4050;DHT22;2039;50.894;6.888;2023-05-28T07:25:19;16.60;1.00
4050;DHT22;2039;50.894;6.888;2023-05-28T07:27:45;16.70;1.00
4050;DHT22;2039;50.894;6.888;2023-05-28T07:30:11;16.80;1.00
4050;DHT22;2039;50.894;6.888;2023-05-28T07:32:37;16.80;1.00
4050;DHT22;2039;50.894;6.888;2023-05-28T07:35:03;16.90;1.00
4050;DHT22;2039;50.894;6.888;2023-05-28T07:37:29;17.00;1.00
4050;DHT22;2039;50.894;6.888;2023-05-28T07:40:04;17.00;1.00
4050;DHT22;2039;50.894;6.888;2023-05-28T07:42:30;17.10;1.00
4050;DHT22;2039;50.894;6.888;2023-05-28T07:44:56;17.20;1.00
4050;DHT22;2039;50.894;6.888;2023-05-28T07:47:22;17.30;1.00
4050;DHT22;2039;50.894;6.888;2023-05-28T07:49:47;17.30;1.00
4050;DHT22;2039;50.894;6.888;2023-05-28T07:52:13;17.30;1.00
4050;DHT22;2039;50.894;6.888;2023-05-28T07:54:39;17.30;1.00
4050;DHT22;2039;50.894;6.888;2023-05-28T07:57:07;17.50;1.00
4050;DHT22;2039;50.894;6.888;2023-05-28T07:59:33;17.60;1.00
4050;DHT22;2039;50.894;6.888;2023-05-28T08:02:01;17.60;1.00
4050;DHT22;2039;50.894;6.888;2023-05-28T08:04:27;17.60;1.00
4050;DHT22;2039;50.894;6.888;2023-05-28T08:06:53;17.70;1.00
4050;DHT22;2039;50.894;6.888;2023-05-28T08:09:23;17.70;1.00
4050;DHT22;2039;50.894;6.888;2023-05-28T08:11:50;17.70;1.00
4050;DHT22;2039;50.894;6.888;2023-05-28T08:14:15;17.70;1.00
4050;DHT22;2039;50.894;6.888;2023-05-28T08:16:41;17.70;1.00
4050;DHT22;2039;50.894;6.888;2023-05-28T08:19:08;17.80;1.00
4050;DHT22;2039;50.894;6.888;2023-05-28T08:21:42;17.90;1.00
4050;DHT22;2039;50.894;6.888;2023-05-28T08:24:10;17.90;1.00
4050;DHT22;2039;50.894;6.888;2023-05-28T08:26:37;18.00;1.00
4050;DHT22;2039;50.894;6.888;2023-05-28T08:29:03;18.10;1.00
4050;DHT22;2039;50.894;6.888;2023-05-28T08:31:31;18.20;1.00
4050;DHT22;2039;50.894;6.888;2023-05-28T08:33:57;18.30;1.00
4050;DHT22;2039;50.894;6.888;2023-05-28T08:36:23;18.40;1.00
4050;DHT22;2039;50.894;6.888;2023-05-28T08:38:49;18.40;1.00
4050;DHT22;2039;50.894;6.888;2023-05-28T08:41:15;18.50;1.00
4050;DHT22;2039;50.894;6.888;2023-05-28T08:43:42;18.60;1.00
4050;DHT22;2039;50.894;6.888;2023-05-28T08:46:07;18.70;1.00
4050;DHT22;2039;50.894;6.888;2023-05-28T08:48:34;18.70;1.00
4050;DHT22;2039;50.894;6.888;2023-05-28T08:51:00;18.80;1.00
4050;DHT22;2039;50.894;6.888;2023-05-28T08:53:27;18.90;1.00
4050;DHT22;2039;50.894;6.888;2023-05-28T08:55:56;19.00;1.00
4050;DHT22;2039;50.894;6.888;2023-05-28T08:58:24;19.00;1.00
4050;DHT22;2039;50.894;6.888;2023-05-28T09:00:50;19.20;1.00
4050;DHT22;2039;50.894;6.888;2023-05-28T09:03:16;19.40;1.00
4050;DHT22;2039;50.894;6.888;2023-05-28T09:05:42;19.50;1.00
4050;DHT22;2039;50.894;6.888;2023-05-28T09:08:10;19.60;1.00
4050;DHT22;2039;50.894;6.888;2023-05-28T09:10:40;19.80;1.00
4050;DHT22;2039;50.894;6.888;2023-05-28T09:13:08;20.00;1.00
4050;DHT22;2039;50.894;6.888;2023-05-28T09:15:34;20.00;1.00
4050;DHT22;2039;50.894;6.888;2023-05-28T09:18:01;20.10;1.00
4050;DHT22;2039;50.894;6.888;2023-05-28T09:20:27;20.20;1.00
4050;DHT22;2039;50.894;6.888;2023-05-28T09:23:06;20.30;1.00
4050;DHT22;2039;50.894;6.888;2023-05-28T09:25:41;20.40;1.00
4050;DHT22;2039;50.894;6.888;2023-05-28T09:28:07;20.60;1.00
4050;DHT22;2039;50.894;6.888;2023-05-28T09:30:35;20.70;1.00
4050;DHT22;2039;50.894;6.888;2023-05-28T09:33:03;20.80;1.00
4050;DHT22;2039;50.894;6.888;2023-05-28T09:35:32;21.00;1.00
4050;DHT22;2039;50.894;6.888;2023-05-28T09:38:11;21.30;1.00
4050;DHT22;2039;50.894;6.888;2023-05-28T09:40:43;21.50;1.00
4050;DHT22;2039;50.894;6.888;2023-05-28T09:43:10;21.70;1.00
4050;DHT22;2039;50.894;6.888;2023-05-28T09:45:36;21.80;1.00
4050;DHT22;2039;50.894;6.888;2023-05-28T09:48:03;22.00;1.00
4050;DHT22;2039;50.894;6.888;2023-05-28T09:50:29;22.20;1.00
4050;DHT22;2039;50.894;6.888;2023-05-28T09:52:57;22.40;1.00
4050;DHT22;2039;50.894;6.888;2023-05-28T09:55:25;22.60;1.00
4050;DHT22;2039;50.894;6.888;2023-05-28T09:58:02;22.80;1.00
4050;DHT22;2039;50.894;6.888;2023-05-28T10:00:47;22.50;1.00
4050;DHT22;2039;50.894;6.888;2023-05-28T10:03:25;22.70;1.00
4050;DHT22;2039;50.894;6.888;2023-05-28T10:05:57;23.10;1.00
4050;DHT22;2039;50.894;6.888;2023-05-28T10:08:28;23.20;1.00
4050;DHT22;2039;50.894;6.888;2023-05-28T10:10:54;23.50;1.00
4050;DHT22;2039;50.894;6.888;2023-05-28T10:13:23;23.60;1.00
4050;DHT22;2039;50.894;6.888;2023-05-28T10:15:50;23.80;1.00
4050;DHT22;2039;50.894;6.888;2023-05-28T10:18:17;23.90;1.00
4050;DHT22;2039;50.894;6.888;2023-05-28T10:20:46;23.80;1.00
4050;DHT22;2039;50.894;6.888;2023-05-28T10:23:12;23.80;1.00
4050;DHT22;2039;50.894;6.888;2023-05-28T10:25:39;23.90;1.00
4050;DHT22;2039;50.894;6.888;2023-05-28T10:28:05;24.20;1.00
4050;DHT22;2039;50.894;6.888;2023-05-28T10:30:36;24.30;1.00
4050;DHT22;2039;50.894;6.888;2023-05-28T10:33:10;24.50;1.00
4050;DHT22;2039;50.894;6.888;2023-05-28T10:35:53;24.80;1.00
4050;DHT22;2039;50.894;6.888;2023-05-28T10:38:19;24.90;1.00
4050;DHT22;2039;50.894;6.888;2023-05-28T10:40:45;25.00;1.00
4050;DHT22;2039;50.894;6.888;2023-05-28T10:51:54;25.40;1.00
4050;DHT22;2039;50.894;6.888;2023-05-28T10:57:20;25.70;1.00
4050;DHT22;2039;50.894;6.888;2023-05-28T11:00:00;25.70;1.00
4050;DHT22;2039;50.894;6.888;2023-05-28T11:02:28;25.70;1.00
4050;DHT22;2039;50.894;6.888;2023-05-28T11:04:56;25.70;1.00
4050;DHT22;2039;50.894;6.888;2023-05-28T11:07:29;25.70;1.00
4050;DHT22;2039;50.894;6.888;2023-05-28T11:09:56;25.90;1.00
4050;DHT22;2039;50.894;6.888;2023-05-28T11:12:22;26.10;1.00
4050;DHT22;2039;50.894;6.888;2023-05-28T11:14:48;26.30;1.00
4050;DHT22;2039;50.894;6.888;2023-05-28T11:17:14;26.40;1.00
4050;DHT22;2039;50.894;6.888;2023-05-28T11:19:41;26.60;1.00
4050;DHT22;2039;50.894;6.888;2023-05-28T11:22:07;26.70;1.00
4050;DHT22;2039;50.894;6.888;2023-05-28T11:24:58;26.90;1.00
4050;DHT22;2039;50.894;6.888;2023-05-28T11:27:28;27.30;1.00
4050;DHT22;2039;50.894;6.888;2023-05-28T11:32:26;27.00;1.00
4050;DHT22;2039;50.894;6.888;2023-05-28T11:34:55;27.30;1.00
4050;DHT22;2039;50.894;6.888;2023-05-28T11:37:38;27.20;1.00
4050;DHT22;2039;50.894;6.888;2023-05-28T11:40:11;26.70;1.00
4050;DHT22;2039;50.894;6.888;2023-05-28T11:42:46;26.50;1.00
4050;DHT22;2039;50.894;6.888;2023-05-28T11:45:12;26.70;1.00
4050;DHT22;2039;50.894;6.888;2023-05-28T11:47:41;26.80;1.00
4050;DHT22;2039;50.894;6.888;2023-05-28T11:50:14;26.60;1.00
4050;DHT22;2039;50.894;6.888;2023-05-28T11:52:40;26.50;1.00
4050;DHT22;2039;50.894;6.888;2023-05-28T11:55:07;26.50;1.00
4050;DHT22;2039;50.894;6.888;2023-05-28T11:57:33;26.20;1.00
4050;DHT22;2039;50.894;6.888;2023-05-28T12:00:02;26.00;1.00
4050;DHT22;2039;50.894;6.888;2023-05-28T12:02:43;26.20;1.00
4050;DHT22;2039;50.894;6.888;2023-05-28T12:05:09;26.00;1.00
4050;DHT22;2039;50.894;6.888;2023-05-28T12:07:35;25.90;1.00
4050;DHT22;2039;50.894;6.888;2023-05-28T12:10:09;25.80;1.00
4050;DHT22;2039;50.894;6.888;2023-05-28T12:12:40;25.80;1.00
4050;DHT22;2039;50.894;6.888;2023-05-28T12:15:07;25.90;1.00
4050;DHT22;2039;50.894;6.888;2023-05-28T12:17:37;25.80;1.00
4050;DHT22;2039;50.894;6.888;2023-05-28T12:22:41;26.30;1.00
4050;DHT22;2039;50.894;6.888;2023-05-28T12:25:07;26.30;1.00
4050;DHT22;2039;50.894;6.888;2023-05-28T12:27:33;26.30;1.00
4050;DHT22;2039;50.894;6.888;2023-05-28T12:29:59;26.40;1.00
4050;DHT22;2039;50.894;6.888;2023-05-28T12:32:25;26.40;1.00
4050;DHT22;2039;50.894;6.888;2023-05-28T12:34:52;26.30;1.00
4050;DHT22;2039;50.894;6.888;2023-05-28T12:37:19;26.00;1.00
4050;DHT22;2039;50.894;6.888;2023-05-28T12:39:46;26.20;1.00
4050;DHT22;2039;50.894;6.888;2023-05-28T12:42:11;26.00;1.00
4050;DHT22;2039;50.894;6.888;2023-05-28T12:44:37;26.00;1.00
4050;DHT22;2039;50.894;6.888;2023-05-28T12:47:03;26.20;1.00
4050;DHT22;2039;50.894;6.888;2023-05-28T12:49:29;26.30;1.00
4050;DHT22;2039;50.894;6.888;2023-05-28T12:51:55;26.40;1.00
4050;DHT22;2039;50.894;6.888;2023-05-28T12:54:20;26.50;1.00
4050;DHT22;2039;50.894;6.888;2023-05-28T12:56:46;26.40;1.00
4050;DHT22;2039;50.894;6.888;2023-05-28T12:59:26;26.30;1.00
4050;DHT22;2039;50.894;6.888;2023-05-28T13:01:54;26.30;1.00
4050;DHT22;2039;50.894;6.888;2023-05-28T13:04:24;26.30;1.00
4050;DHT22;2039;50.894;6.888;2023-05-28T13:06:50;26.60;1.00
4050;DHT22;2039;50.894;6.888;2023-05-28T13:09:17;26.40;1.00
4050;DHT22;2039;50.894;6.888;2023-05-28T13:11:43;26.40;1.00
4050;DHT22;2039;50.894;6.888;2023-05-28T13:14:10;26.30;1.00
4050;DHT22;2039;50.894;6.888;2023-05-28T13:16:36;26.30;1.00
4050;DHT22;2039;50.894;6.888;2023-05-28T13:19:08;26.00;1.00
4050;DHT22;2039;50.894;6.888;2023-05-28T13:21:34;26.20;1.00
4050;DHT22;2039;50.894;6.888;2023-05-28T13:24:04;26.40;1.00
4050;DHT22;2039;50.894;6.888;2023-05-28T13:26:41;26.50;1.00
4050;DHT22;2039;50.894;6.888;2023-05-28T13:29:07;26.50;1.00
4050;DHT22;2039;50.894;6.888;2023-05-28T13:31:34;26.60;1.00
4050;DHT22;2039;50.894;6.888;2023-05-28T13:34:00;26.60;1.00
4050;DHT22;2039;50.894;6.888;2023-05-28T13:36:26;26.60;1.00
4050;DHT22;2039;50.894;6.888;2023-05-28T13:38:55;26.60;1.00
4050;DHT22;2039;50.894;6.888;2023-05-28T13:41:21;26.40;1.00
4050;DHT22;2039;50.894;6.888;2023-05-28T13:43:53;26.50;1.00
4050;DHT22;2039;50.894;6.888;2023-05-28T13:46:20;26.50;1.00
4050;DHT22;2039;50.894;6.888;2023-05-28T13:48:46;26.50;1.00
4050;DHT22;2039;50.894;6.888;2023-05-28T13:51:12;26.60;1.00
4050;DHT22;2039;50.894;6.888;2023-05-28T13:53:37;26.40;1.00
4050;DHT22;2039;50.894;6.888;2023-05-28T13:56:04;26.60;1.00
4050;DHT22;2039;50.894;6.888;2023-05-28T13:58:32;26.50;1.00
4050;DHT22;2039;50.894;6.888;2023-05-28T14:00:58;26.70;1.00
4050;DHT22;2039;50.894;6.888;2023-05-28T14:03:26;26.50;1.00
4050;DHT22;2039;50.894;6.888;2023-05-28T14:05:59;26.60;1.00
4050;DHT22;2039;50.894;6.888;2023-05-28T14:08:25;26.80;1.00
4050;DHT22;2039;50.894;6.888;2023-05-28T14:10:51;27.20;1.00
4050;DHT22;2039;50.894;6.888;2023-05-28T14:13:19;27.50;1.00
4050;DHT22;2039;50.894;6.888;2023-05-28T14:15:48;27.60;1.00
4050;DHT22;2039;50.894;6.888;2023-05-28T14:18:13;27.80;1.00
4050;DHT22;2039;50.894;6.888;2023-05-28T14:20:39;27.80;1.00
4050;DHT22;2039;50.894;6.888;2023-05-28T14:23:07;28.00;1.00
4050;DHT22;2039;50.894;6.888;2023-05-28T14:25:33;28.20;1.00
4050;DHT22;2039;50.894;6.888;2023-05-28T14:27:59;28.20;1.00
4050;DHT22;2039;50.894;6.888;2023-05-28T14:30:24;28.40;1.00
4050;DHT22;2039;50.894;6.888;2023-05-28T14:32:50;28.40;1.00
4050;DHT22;2039;50.894;6.888;2023-05-28T14:35:19;28.60;1.00
4050;DHT22;2039;50.894;6.888;2023-05-28T14:37:53;28.50;1.00
4050;DHT22;2039;50.894;6.888;2023-05-28T14:40:20;28.50;1.00
4050;DHT22;2039;50.894;6.888;2023-05-28T14:42:47;28.50;1.00
4050;DHT22;2039;50.894;6.888;2023-05-28T14:45:16;28.50;1.00
4050;DHT22;2039;50.894;6.888;2023-05-28T14:47:51;28.30;1.00
4050;DHT22;2039;50.894;6.888;2023-05-28T14:50:35;28.40;1.00
4050;DHT22;2039;50.894;6.888;2023-05-28T14:53:07;28.60;1.00
4050;DHT22;2039;50.894;6.888;2023-05-28T14:55:36;28.60;1.00
4050;DHT22;2039;50.894;6.888;2023-05-28T14:58:19;28.50;1.00
4050;DHT22;2039;50.894;6.888;2023-05-28T15:00:46;28.60;1.00
4050;DHT22;2039;50.894;6.888;2023-05-28T15:03:13;28.80;1.00
4050;DHT22;2039;50.894;6.888;2023-05-28T15:05:42;29.00;1.00
4050;DHT22;2039;50.894;6.888;2023-05-28T15:08:08;29.20;1.00
4050;DHT22;2039;50.894;6.888;2023-05-28T15:10:35;29.20;1.00
4050;DHT22;2039;50.894;6.888;2023-05-28T15:13:01;29.20;1.00
4050;DHT22;2039;50.894;6.888;2023-05-28T15:15:26;29.00;1.00
4050;DHT22;2039;50.894;6.888;2023-05-28T15:17:52;29.20;1.00
4050;DHT22;2039;50.894;6.888;2023-05-28T15:20:20;29.40;1.00
4050;DHT22;2039;50.894;6.888;2023-05-28T15:22:45;29.40;1.00
4050;DHT22;2039;50.894;6.888;2023-05-28T15:25:11;29.40;1.00
4050;DHT22;2039;50.894;6.888;2023-05-28T15:27:53;29.30;1.00
4050;DHT22;2039;50.894;6.888;2023-05-28T15:30:24;29.10;1.00
4050;DHT22;2039;50.894;6.888;2023-05-28T15:32:52;29.00;1.00
4050;DHT22;2039;50.894;6.888;2023-05-28T15:40:52;28.80;1.00
4050;DHT22;2039;50.894;6.888;2023-05-28T15:46:00;28.90;1.00
4050;DHT22;2039;50.894;6.888;2023-05-28T15:48:35;29.00;1.00
4050;DHT22;2039;50.894;6.888;2023-05-28T15:51:03;29.30;1.00
4050;DHT22;2039;50.894;6.888;2023-05-28T15:53:31;29.70;1.00
4050;DHT22;2039;50.894;6.888;2023-05-28T15:55:59;30.00;1.00
4050;DHT22;2039;50.894;6.888;2023-05-28T15:58:25;30.10;1.00
4050;DHT22;2039;50.894;6.888;2023-05-28T16:00:54;30.10;1.00
4050;DHT22;2039;50.894;6.888;2023-05-28T16:03:20;30.00;1.00
4050;DHT22;2039;50.894;6.888;2023-05-28T16:05:47;30.00;1.00
4050;DHT22;2039;50.894;6.888;2023-05-28T16:08:12;30.00;1.00
4050;DHT22;2039;50.894;6.888;2023-05-28T16:10:39;29.80;1.00
4050;DHT22;2039;50.894;6.888;2023-05-28T16:13:06;29.70;1.00
4050;DHT22;2039;50.894;6.888;2023-05-28T16:15:33;29.70;1.00
4050;DHT22;2039;50.894;6.888;2023-05-28T16:18:04;29.80;1.00
4050;DHT22;2039;50.894;6.888;2023-05-28T16:20:31;29.80;1.00
4050;DHT22;2039;50.894;6.888;2023-05-28T16:22:58;30.00;1.00
4050;DHT22;2039;50.894;6.888;2023-05-28T16:25:24;30.00;1.00
4050;DHT22;2039;50.894;6.888;2023-05-28T16:27:50;30.20;1.00
4050;DHT22;2039;50.894;6.888;2023-05-28T16:30:19;30.10;1.00
4050;DHT22;2039;50.894;6.888;2023-05-28T16:32:50;30.00;1.00
4050;DHT22;2039;50.894;6.888;2023-05-28T16:35:17;30.20;1.00
4050;DHT22;2039;50.894;6.888;2023-05-28T16:37:44;30.20;1.00